Latest Coastal Weather Observations for Legendre Island

IDW60701

Issued at 6:13 pm WST Thursday 2 December 2021 (issued every 10 minutes, with the page automatically refreshed every 10 minutes)

About coastal observations | Map of coastal stations | Coastal observations for WA | Marine services | Other Formats
Station Details ID: 004095 Name: LEGENDRE ISLAND Lat: -20.36 Lon: 116.84 Height: 29.0 m
Data from the previous 72 hours. | See also: Recent months at Legendre Island
Date/Time
WST
Wind Sea
Height
m
Swell Vis
km
Cloud Weather Temp
°C
Press
MSL
hPa
Rain since
9am
mm
Dir  Spd
kts
Gust
kts
Height
m
Period
s
Dir
02/06:00pm WSW 18 23 - - - - - - - 28.4 1005.8 -
02/05:30pm W 17 22 - - - - - - - 28.9 1005.7 -
02/05:00pm W 18 22 - - - - - - - 29.2 1005.5 -
02/04:30pm W 20 23 - - - - - - - 28.6 1005.6 -
02/04:00pm W 20 25 - - - - - - - 29.8 1005.6 -
02/03:30pm W 16 20 - - - - - - - 30.6 1005.8 -
02/03:00pm W 18 22 - - - - - - - 30.1 1006.1 -
02/02:30pm W 19 22 - - - - - - - 29.6 1006.4 -
02/02:00pm W 19 22 - - - - - - - 30.4 1006.7 -
02/01:30pm W 18 21 - - - - - - - 29.8 1007.0 -
02/01:00pm W 16 19 - - - - - - - 30.3 1007.5 -
02/12:30pm W 16 19 - - - - - - - 29.6 1007.9 -
02/12:00pm W 15 17 - - - - - - - 29.1 1008.1 -
02/11:30am W 15 18 - - - - - - - 30.0 1008.3 -
02/11:00am WSW 13 15 - - - - - - - 30.4 1008.6 -
02/10:30am SW 15 17 - - - - - - - 30.4 1008.6 -
02/10:00am WSW 16 18 - - - - - - - 30.5 1008.9 -
02/09:30am SW 16 18 - - - - - - - 29.6 1009.0 -
02/09:00am SW 16 18 - - - - - - - 29.2 1009.0 -
02/08:30am SW 15 17 - - - - - - - 29.0 1008.9 -
02/08:00am SW 14 17 - - - - - - - 28.6 1008.9 -
02/07:30am SW 17 20 - - - - - - - 28.2 1008.6 -
02/07:00am SW 18 21 - - - - - - - 27.4 1008.4 -
02/06:30am SW 18 22 - - - - - - - 27.1 1008.0 -
02/06:00am SW 19 24 - - - - - - - 26.8 1007.8 -
02/05:30am SW 20 25 - - - - - - - 26.5 1007.4 -
02/05:00am SW 18 22 - - - - - - - 26.6 1007.3 -
02/04:30am SW 19 22 - - - - - - - 26.7 1007.0 -
02/04:00am SW 20 23 - - - - - - - 26.8 1006.8 -
02/03:30am SW 20 23 - - - - - - - 27.0 1006.6 -
02/03:00am SW 19 23 - - - - - - - 27.2 1006.4 -
02/02:30am SW 20 24 - - - - - - - 27.4 1006.2 -
02/02:00am SW 19 23 - - - - - - - 27.5 1006.1 -
02/01:30am SW 19 22 - - - - - - - 27.5 1006.2 -
02/01:00am SW 20 25 - - - - - - - 27.5 1006.4 -
02/12:30am SW 19 24 - - - - - - - 27.4 1006.6 -
02/12:00am SW 21 26 - - - - - - - 27.4 1006.7 -
 
Date/Time
WST
Wind Sea
Height
m
Swell Vis
km
Cloud Weather Temp
°C
Press
MSL
hPa
Rain since
9am
mm
Dir  Spd
kts
Gust
kts
Height
m
Period
s
Dir
01/11:30pm SW 22 26 - - - - - - - 27.4 1007.0 -
01/11:00pm SW 21 26 - - - - - - - 27.4 1007.2 -
01/10:30pm SW 22 27 - - - - - - - 27.4 1007.1 -
01/10:00pm SW 22 26 - - - - - - - 27.5 1007.2 -
01/09:30pm WSW 22 27 - - - - - - - 27.5 1007.1 -
01/09:00pm WSW 20 25 - - - - - - - 27.8 1006.9 -
01/08:30pm WSW 18 22 - - - - - - - 27.5 1006.7 -
01/08:00pm WSW 19 23 - - - - - - - 27.4 1006.3 -
01/07:30pm WSW 18 22 - - - - - - - 27.5 1006.1 -
01/07:00pm WSW 19 24 - - - - - - - 27.6 1005.6 -
01/06:30pm WSW 19 23 - - - - - - - 28.1 1005.3 -
01/06:00pm WSW 19 24 - - - - - - - 29.0 1004.9 -
01/05:30pm WSW 19 25 - - - - - - - 29.9 1004.5 -
01/05:00pm WSW 20 24 - - - - - - - 30.4 1004.3 -
01/04:30pm WSW 20 23 - - - - - - - 30.9 1004.1 -
01/04:00pm WSW 19 24 - - - - - - - 32.0 1004.1 -
01/03:30pm WSW 20 24 - - - - - - - 32.0 1004.2 -
01/03:00pm WSW 19 24 - - - - - - - 32.5 1004.6 -
01/02:30pm W 19 22 - - - - - - - 30.7 1004.9 -
01/02:00pm W 17 21 - - - - - - - 31.0 1005.1 -
01/01:30pm W 18 21 - - - - - - - 30.9 1005.6 -
01/01:00pm W 15 19 - - - - - - - 30.9 1006.2 -
01/12:30pm W 14 18 - - - - - - - 30.9 1006.7 -
01/12:00pm W 14 17 - - - - - - - 30.9 1006.9 -
01/11:30am W 14 18 - - - - - - - 30.5 1007.2 -
01/11:00am W 14 17 - - - - - - - 30.6 1007.4 -
01/10:30am W 13 16 - - - - - - - 30.9 1007.4 -
01/10:00am WSW 9 11 - - - - - - - 31.8 1007.8 -
01/09:30am WSW 8 10 - - - - - - - 32.2 1007.9 -
01/09:00am SW 10 13 - - - - - - - 32.0 1007.6 -
01/08:30am SW 11 13 - - - - - - - 30.9 1007.6 -
01/08:00am SSW 10 12 - - - - - - - 30.6 1007.4 -
01/07:30am SW 10 12 - - - - - - - 29.9 1007.4 -
01/07:00am SW 11 14 - - - - - - - 29.6 1007.2 -
01/06:30am SW 13 16 - - - - - - - 28.8 1006.9 -
01/06:00am SW 13 16 - - - - - - - 28.2 1006.6 -
01/05:30am SW 13 15 - - - - - - - 27.8 1006.3 -
01/05:00am SW 14 16 - - - - - - - 27.9 1006.0 -
01/04:30am WSW 12 13 - - - - - - - 27.7 1006.0 -
01/04:00am WSW 12 15 - - - - - - - 27.8 1005.8 -
01/03:30am WSW 11 13 - - - - - - - 27.4 1005.7 -
01/03:00am WSW 13 15 - - - - - - - 27.6 1005.6 -
01/02:30am W 11 13 - - - - - - - 27.4 1005.7 -
01/02:00am W 11 14 - - - - - - - 27.5 1006.0 -
01/01:30am W 13 15 - - - - - - - 27.5 1006.0 -
01/01:00am W 11 13 - - - - - - - 27.5 1006.4 -
01/12:30am W 10 12 - - - - - - - 27.4 1006.8 -
01/12:00am WNW 10 11 - - - - - - - 27.3 1007.1 -
 
Date/Time
WST
Wind Sea
Height
m
Swell Vis
km
Cloud Weather Temp
°C
Press
MSL
hPa
Rain since
9am
mm
Dir  Spd
kts
Gust
kts
Height
m
Period
s
Dir
30/11:30pm W 9 11 - - - - - - - 27.4 1007.4 -
30/11:00pm W 9 11 - - - - - - - 27.5 1007.6 -
30/10:30pm NW 9 10 - - - - - - - 27.2 1007.7 -
30/10:00pm WNW 9 11 - - - - - - - 27.2 1007.8 -
30/09:30pm WNW 9 11 - - - - - - - 27.1 1007.7 -
30/09:00pm WNW 10 12 - - - - - - - 27.2 1007.6 -
30/08:30pm WNW 10 12 - - - - - - - 27.3 1007.6 -
30/08:00pm WNW 11 13 - - - - - - - 27.4 1007.1 -
30/07:30pm WNW 13 16 - - - - - - - 27.5 1006.6 -
30/07:00pm WNW 14 17 - - - - - - - 27.7 1006.3 -
30/06:30pm WNW 14 17 - - - - - - - 28.0 1005.7 -
30/06:00pm WNW 15 18 - - - - - - - 28.6 1005.3 -
30/05:30pm WNW 14 17 - - - - - - - 29.1 1005.1 -
30/05:00pm NW 13 16 - - - - - - - 29.2 1005.1 -
30/04:30pm WNW 13 16 - - - - - - - 29.7 1005.0 -
30/04:00pm WNW 14 17 - - - - - - - 30.2 1005.1 -
30/03:30pm WNW 15 17 - - - - - - - 30.6 1005.3 -
30/03:00pm NW 13 17 - - - - - - - 30.6 1005.5 -
30/02:30pm W 13 16 - - - - - - - 31.3 1005.7 -
30/02:00pm WNW 12 15 - - - - - - - 31.0 1006.0 -
30/01:30pm WNW 11 14 - - - - - - - 30.8 1006.5 -
30/01:00pm W 12 15 - - - - - - - 30.4 1006.8 -
30/12:30pm W 13 16 - - - - - - - 30.4 1007.3 -
30/12:00pm WSW 13 15 - - - - - - - 30.4 1007.8 -
30/11:30am WSW 16 19 - - - - - - - 31.1 1008.1 -
30/11:00am WSW 15 18 - - - - - - - 30.6 1008.4 -
30/10:30am WSW 15 18 - - - - - - - 30.9 1008.7 -
30/10:00am WSW 16 18 - - - - - - - 30.1 1008.8 -
30/09:30am WSW 15 17 - - - - - - - 29.7 1008.9 -
30/09:00am WSW 13 16 - - - - - - - 29.7 1009.1 -
30/08:30am WSW 12 14 - - - - - - - 29.1 1009.2 -
30/08:00am W 11 13 - - - - - - - 28.4 1009.1 -
30/07:30am W 9 12 - - - - - - - 28.0 1009.1 -
30/07:00am WNW 10 12 - - - - - - - 27.6 1008.9 -
30/06:30am W 11 12 - - - - - - - 26.9 1008.6 -
30/06:00am WSW 12 15 - - - - - - - 26.4 1008.4 -
30/05:30am WSW 12 14 - - - - - - - 26.1 1008.4 -
30/05:00am WSW 11 13 - - - - - - - 26.2 1008.3 -
30/04:30am WSW 13 15 - - - - - - - 26.4 1008.3 -
30/04:00am WSW 14 17 - - - - - - - 26.6 1008.3 -
30/03:30am WSW 16 18 - - - - - - - 26.6 1008.0 -
30/03:00am WSW 16 19 - - - - - - - 26.6 1008.1 -
30/02:30am SW 16 20 - - - - - - - 26.6 1008.0 -
30/02:00am SW 18 21 - - - - - - - 26.7 1008.2 -
30/01:30am WSW 18 21 - - - - - - - 26.8 1008.5 -
30/01:00am WSW 17 20 - - - - - - - 26.9 1008.9 -
30/12:30am WSW 14 18 - - - - - - - 26.8 1009.0 -
30/12:00am WSW 14 16 - - - - - - - 26.7 1009.0 -
 
Date/Time
WST
Wind Sea
Height
m
Swell Vis
km
Cloud Weather Temp
°C
Press
MSL
hPa
Rain since
9am
mm
Dir  Spd
kts
Gust
kts
Height
m
Period
s
Dir
29/11:30pm W 13 16 - - - - - - - 26.8 1009.4 -
29/11:00pm W 13 16 - - - - - - - 26.9 1009.5 -
29/10:30pm WSW 14 16 - - - - - - - 27.0 1009.4 -
29/10:00pm W 12 15 - - - - - - - 27.1 1009.6 -
29/09:30pm W 13 16 - - - - - - - 27.2 1009.5 -
29/09:00pm W 13 16 - - - - - - - 27.3 1009.4 -
29/08:30pm W 11 14 - - - - - - - 27.4 1009.4 -
29/08:00pm W 11 13 - - - - - - - 27.6 1009.0 -
29/07:30pm WNW 10 13 - - - - - - - 27.7 1008.6 -
29/07:00pm WNW 12 14 - - - - - - - 27.8 1008.0 -
29/06:30pm NW 13 16 - - - - - - - 28.1 1007.5 -

Other formats

Comma delimited format used in spreadsheet applications
http://www.bom.gov.au/fwo/IDW60701/IDW60701.94307.axf

JavaScript Object Notation format (JSON) in row-major order
http://www.bom.gov.au/fwo/IDW60701/IDW60701.94307.json

Data quality

Most of these data are generated automatically and are frequently updated. Quality checks on data are not normally performed. It is possible for incorrect values to appear. Refer to information at About Latest Weather Observations and please check the disclaimer before using these data.